AIC228 VOMM-VOBL
Flight info
| Callsign | AIC228 |
|---|---|
| Flight time | 0h 36m |
| Altitude | 22000 |
| Route | VOMM/07 MMV W117 XIVIL XIVIL7E |
| Aircraft | A319/M-SDE3FGHIRWY/LB1 |
Departure
| Time | 2026-04-23 14:27 |
|---|---|
| Airport | Chennai International Airport (VOMM) |
Arrival
| Time | 2026-04-23 15:03 |
|---|---|
| Airport | Kempegowda International Airport Bengaluru (VOBL) |
| Time | Latitude | Longitude | Altitude | Speed | Heading |
|---|---|---|---|---|---|
| 2026-04-23 14:27 | 13.08467 | 80.10941 | 9839 ft | 305 kts | 281° |
| 2026-04-23 14:27 | 13.08852 | 80.08787 | 10512 ft | 312 kts | 281° |
| 2026-04-23 14:27 | 13.09252 | 80.06551 | 10935 ft | 327 kts | 281° |
| 2026-04-23 14:28 | 13.09630 | 80.04424 | 11733 ft | 324 kts | 281° |
| 2026-04-23 14:28 | 13.10026 | 80.02194 | 12773 ft | 313 kts | 280° |
| 2026-04-23 14:28 | 13.10416 | 80.00054 | 13751 ft | 302 kts | 281° |
| 2026-04-23 14:28 | 13.10791 | 79.98013 | 14686 ft | 291 kts | 281° |
| 2026-04-23 14:29 | 13.11155 | 79.96018 | 15521 ft | 283 kts | 281° |
| 2026-04-23 14:29 | 13.11510 | 79.94058 | 16131 ft | 283 kts | 281° |
| 2026-04-23 14:29 | 13.11868 | 79.92065 | 16693 ft | 286 kts | 281° |
| 2026-04-23 14:29 | 13.12225 | 79.90067 | 17231 ft | 289 kts | 281° |
| 2026-04-23 14:30 | 13.12587 | 79.88037 | 17763 ft | 291 kts | 281° |
| 2026-04-23 14:30 | 13.12955 | 79.85969 | 18298 ft | 293 kts | 281° |
| 2026-04-23 14:30 | 13.13318 | 79.83919 | 18816 ft | 296 kts | 281° |
| 2026-04-23 14:30 | 13.13681 | 79.81866 | 19317 ft | 298 kts | 281° |
| 2026-04-23 14:31 | 13.14054 | 79.79752 | 19813 ft | 300 kts | 281° |
| 2026-04-23 14:31 | 13.14422 | 79.77670 | 20276 ft | 303 kts | 281° |
| 2026-04-23 14:31 | 13.14799 | 79.75536 | 20741 ft | 306 kts | 281° |
| 2026-04-23 14:31 | 13.15179 | 79.73377 | 21216 ft | 309 kts | 281° |
| 2026-04-23 14:32 | 13.15561 | 79.71210 | 21665 ft | 312 kts | 281° |
| 2026-04-23 14:32 | 13.15952 | 79.68992 | 21897 ft | 324 kts | 281° |
| 2026-04-23 14:32 | 13.16365 | 79.66647 | 21913 ft | 344 kts | 281° |
| 2026-04-23 14:32 | 13.16800 | 79.64171 | 21918 ft | 363 kts | 281° |
| 2026-04-23 14:33 | 13.17261 | 79.61550 | 21922 ft | 381 kts | 281° |
| 2026-04-23 14:33 | 13.17739 | 79.58828 | 21927 ft | 398 kts | 280° |
| 2026-04-23 14:33 | 13.18234 | 79.56007 | 21926 ft | 406 kts | 280° |
| 2026-04-23 14:33 | 13.18732 | 79.53165 | 21923 ft | 408 kts | 280° |
| 2026-04-23 14:34 | 13.19234 | 79.50295 | 21924 ft | 409 kts | 280° |
| 2026-04-23 14:34 | 13.19740 | 79.47409 | 21929 ft | 420 kts | 280° |
| 2026-04-23 14:34 | 13.20134 | 79.45157 | 21931 ft | 431 kts | 280° |
| 2026-04-23 14:35 | 13.20620 | 79.42377 | 21930 ft | 443 kts | 280° |
| 2026-04-23 14:35 | 13.21170 | 79.39234 | 21934 ft | 455 kts | 280° |
| 2026-04-23 14:35 | 13.21736 | 79.36002 | 21935 ft | 460 kts | 280° |
| 2026-04-23 14:35 | 13.22301 | 79.32761 | 21938 ft | 461 kts | 280° |
| 2026-04-23 14:36 | 13.22859 | 79.29555 | 21933 ft | 460 kts | 280° |
| 2026-04-23 14:36 | 13.23422 | 79.26336 | 21922 ft | 456 kts | 279° |
| 2026-04-23 14:36 | 13.23974 | 79.23178 | 21907 ft | 451 kts | 279° |
| 2026-04-23 14:36 | 13.24524 | 79.20025 | 21890 ft | 445 kts | 278° |
| 2026-04-23 14:37 | 13.25066 | 79.16901 | 21877 ft | 441 kts | 278° |
| 2026-04-23 14:37 | 13.25606 | 79.13782 | 21873 ft | 448 kts | 278° |
| 2026-04-23 14:37 | 13.26151 | 79.10628 | 21867 ft | 458 kts | 279° |
| 2026-04-23 14:37 | 13.26708 | 79.07406 | 21863 ft | 466 kts | 279° |
| 2026-04-23 14:38 | 13.27278 | 79.04126 | 21865 ft | 469 kts | 279° |
| 2026-04-23 14:38 | 13.27850 | 79.00831 | 21869 ft | 470 kts | 278° |
| 2026-04-23 14:38 | 13.28422 | 78.97541 | 21874 ft | 470 kts | 278° |
| 2026-04-23 14:38 | 13.28911 | 78.94280 | 21880 ft | 452 kts | 275° |
| 2026-04-23 14:39 | 13.29147 | 78.91149 | 21889 ft | 428 kts | 271° |
| 2026-04-23 14:39 | 13.29147 | 78.88178 | 21898 ft | 407 kts | 266° |
| 2026-04-23 14:39 | 13.28975 | 78.85340 | 21904 ft | 387 kts | 264° |
| 2026-04-23 14:39 | 13.28776 | 78.82639 | 21909 ft | 371 kts | 264° |
| 2026-04-23 14:40 | 13.28582 | 78.80051 | 21918 ft | 369 kts | 264° |
| 2026-04-23 14:40 | 13.28384 | 78.77395 | 21924 ft | 369 kts | 264° |
| 2026-04-23 14:40 | 13.28191 | 78.74776 | 21932 ft | 368 kts | 264° |
| 2026-04-23 14:40 | 13.28002 | 78.72181 | 21939 ft | 368 kts | 264° |
| 2026-04-23 14:41 | 13.27810 | 78.69549 | 21944 ft | 368 kts | 264° |
| 2026-04-23 14:41 | 13.27621 | 78.66950 | 21950 ft | 368 kts | 264° |
| 2026-04-23 14:41 | 13.27430 | 78.64314 | 21943 ft | 367 kts | 264° |
| 2026-04-23 14:41 | 13.27247 | 78.61771 | 21700 ft | 361 kts | 264° |
| 2026-04-23 14:42 | 13.27060 | 78.59203 | 21163 ft | 361 kts | 265° |
| 2026-04-23 14:42 | 13.26873 | 78.56622 | 20632 ft | 361 kts | 265° |
| 2026-04-23 14:42 | 13.26688 | 78.54082 | 20141 ft | 360 kts | 265° |
| 2026-04-23 14:42 | 13.26502 | 78.51528 | 19679 ft | 358 kts | 265° |
| 2026-04-23 14:43 | 13.26343 | 78.48979 | 19273 ft | 358 kts | 267° |
| 2026-04-23 14:43 | 13.26353 | 78.46435 | 18889 ft | 358 kts | 272° |
| 2026-04-23 14:43 | 13.26561 | 78.43901 | 18499 ft | 357 kts | 276° |
| 2026-04-23 14:43 | 13.26932 | 78.41385 | 18108 ft | 356 kts | 278° |
| 2026-04-23 14:44 | 13.27341 | 78.38877 | 17722 ft | 356 kts | 278° |
| 2026-04-23 14:44 | 13.27748 | 78.36385 | 17331 ft | 354 kts | 279° |
| 2026-04-23 14:44 | 13.28147 | 78.33914 | 16955 ft | 353 kts | 278° |
| 2026-04-23 14:44 | 13.28544 | 78.31435 | 16513 ft | 353 kts | 279° |
| 2026-04-23 14:45 | 13.28937 | 78.28956 | 16054 ft | 353 kts | 279° |
| 2026-04-23 14:45 | 13.29330 | 78.26479 | 15588 ft | 352 kts | 279° |
| 2026-04-23 14:45 | 13.29723 | 78.24008 | 15129 ft | 352 kts | 280° |
| 2026-04-23 14:45 | 13.30097 | 78.21530 | 14663 ft | 352 kts | 278° |
| 2026-04-23 14:46 | 13.30336 | 78.19044 | 14197 ft | 352 kts | 275° |
| 2026-04-23 14:46 | 13.30424 | 78.16540 | 13740 ft | 351 kts | 272° |
| 2026-04-23 14:46 | 13.30461 | 78.14050 | 13280 ft | 350 kts | 272° |
| 2026-04-23 14:46 | 13.30491 | 78.11568 | 12798 ft | 349 kts | 272° |
| 2026-04-23 14:47 | 13.30522 | 78.09141 | 12325 ft | 341 kts | 273° |
| 2026-04-23 14:47 | 13.30555 | 78.06707 | 12042 ft | 341 kts | 273° |
| 2026-04-23 14:47 | 13.30592 | 78.04260 | 11804 ft | 340 kts | 272° |
| 2026-04-23 14:47 | 13.30626 | 78.01853 | 11529 ft | 340 kts | 272° |
| 2026-04-23 14:48 | 13.30659 | 77.99440 | 11047 ft | 335 kts | 272° |
| 2026-04-23 14:48 | 13.30694 | 77.97064 | 10324 ft | 335 kts | 272° |
| 2026-04-23 14:48 | 13.30728 | 77.94678 | 9671 ft | 335 kts | 272° |
| 2026-04-23 14:48 | 13.30762 | 77.92291 | 9217 ft | 333 kts | 272° |
| 2026-04-23 14:49 | 13.30796 | 77.89924 | 9020 ft | 333 kts | 272° |
| 2026-04-23 14:49 | 13.30827 | 77.87561 | 9009 ft | 334 kts | 272° |
| 2026-04-23 14:49 | 13.30860 | 77.85168 | 9001 ft | 336 kts | 271° |
| 2026-04-23 14:49 | 13.30893 | 77.82774 | 8999 ft | 336 kts | 271° |
| 2026-04-23 14:50 | 13.30924 | 77.80365 | 8999 ft | 336 kts | 271° |
| 2026-04-23 14:50 | 13.30954 | 77.77975 | 8999 ft | 337 kts | 271° |
| 2026-04-23 14:50 | 13.30977 | 77.75557 | 8999 ft | 337 kts | 271° |
| 2026-04-23 14:50 | 13.30996 | 77.73151 | 8997 ft | 337 kts | 271° |
| 2026-04-23 14:51 | 13.31015 | 77.70744 | 8993 ft | 337 kts | 271° |
| 2026-04-23 14:51 | 13.31035 | 77.68336 | 8991 ft | 338 kts | 271° |
| 2026-04-23 14:51 | 13.31053 | 77.65929 | 8995 ft | 338 kts | 271° |
| 2026-04-23 14:51 | 13.31071 | 77.63520 | 8997 ft | 338 kts | 271° |
| 2026-04-23 14:52 | 13.31089 | 77.61146 | 8990 ft | 325 kts | 271° |
| 2026-04-23 14:52 | 13.31116 | 77.58915 | 8989 ft | 308 kts | 272° |
| 2026-04-23 14:52 | 13.31150 | 77.56762 | 8985 ft | 292 kts | 272° |
| 2026-04-23 14:52 | 13.31187 | 77.54720 | 8988 ft | 280 kts | 272° |
| 2026-04-23 14:53 | 13.31225 | 77.52748 | 8963 ft | 278 kts | 272° |
| 2026-04-23 14:53 | 13.31266 | 77.50761 | 8702 ft | 276 kts | 272° |
| 2026-04-23 14:53 | 13.31309 | 77.48795 | 8326 ft | 279 kts | 272° |
| 2026-04-23 14:53 | 13.31357 | 77.46808 | 8009 ft | 278 kts | 272° |
| 2026-04-23 14:54 | 13.31407 | 77.44823 | 7691 ft | 278 kts | 272° |
| 2026-04-23 14:54 | 13.31464 | 77.42857 | 7376 ft | 277 kts | 272° |
| 2026-04-23 14:54 | 13.31525 | 77.40881 | 7077 ft | 276 kts | 271° |
| 2026-04-23 14:54 | 13.31316 | 77.38942 | 7001 ft | 268 kts | 247° |
| 2026-04-23 14:55 | 13.30351 | 77.37422 | 6994 ft | 248 kts | 216° |
| 2026-04-23 14:55 | 13.28866 | 77.36652 | 7001 ft | 237 kts | 187° |
| 2026-04-23 14:55 | 13.27229 | 77.36422 | 7018 ft | 237 kts | 180° |
| 2026-04-23 14:55 | 13.25577 | 77.36318 | 7020 ft | 237 kts | 178° |
| 2026-04-23 14:56 | 13.23972 | 77.36488 | 6878 ft | 225 kts | 153° |
| 2026-04-23 14:56 | 13.22765 | 77.37424 | 6655 ft | 214 kts | 124° |
| 2026-04-23 14:56 | 13.22189 | 77.38758 | 6533 ft | 202 kts | 102° |
| 2026-04-23 14:56 | 13.21825 | 77.40118 | 6397 ft | 195 kts | 108° |
| 2026-04-23 14:57 | 13.21394 | 77.41403 | 6261 ft | 188 kts | 106° |
| 2026-04-23 14:57 | 13.21104 | 77.42696 | 6110 ft | 181 kts | 98° |
| 2026-04-23 14:57 | 13.20987 | 77.43933 | 6096 ft | 166 kts | 94° |
| 2026-04-23 14:57 | 13.20956 | 77.45074 | 6034 ft | 154 kts | 92° |
| 2026-04-23 14:58 | 13.20943 | 77.46165 | 6020 ft | 155 kts | 92° |
| 2026-04-23 14:58 | 13.20930 | 77.47295 | 6026 ft | 165 kts | 92° |
| 2026-04-23 14:58 | 13.20915 | 77.48537 | 6031 ft | 180 kts | 92° |
| 2026-04-23 14:58 | 13.20900 | 77.49811 | 6018 ft | 180 kts | 92° |
| 2026-04-23 14:59 | 13.20886 | 77.51110 | 6001 ft | 182 kts | 92° |
| 2026-04-23 14:59 | 13.20872 | 77.52397 | 5863 ft | 177 kts | 92° |
| 2026-04-23 14:59 | 13.20860 | 77.53605 | 5678 ft | 160 kts | 92° |
| 2026-04-23 14:59 | 13.20849 | 77.54736 | 5475 ft | 159 kts | 92° |
| 2026-04-23 15:00 | 13.20837 | 77.55834 | 5281 ft | 160 kts | 92° |
| 2026-04-23 15:00 | 13.20826 | 77.56958 | 5087 ft | 152 kts | 91° |
| 2026-04-23 15:00 | 13.20816 | 77.57986 | 4872 ft | 139 kts | 91° |
| 2026-04-23 15:00 | 13.20808 | 77.58980 | 4700 ft | 137 kts | 92° |
| 2026-04-23 15:01 | 13.20798 | 77.59946 | 4536 ft | 137 kts | 92° |
| 2026-04-23 15:01 | 13.20789 | 77.60925 | 4367 ft | 136 kts | 92° |
| 2026-04-23 15:01 | 13.20780 | 77.61900 | 4199 ft | 136 kts | 92° |
| 2026-04-23 15:01 | 13.20770 | 77.62869 | 4031 ft | 135 kts | 92° |
| 2026-04-23 15:02 | 13.20762 | 77.63820 | 3868 ft | 135 kts | 92° |
| 2026-04-23 15:02 | 13.20753 | 77.64778 | 3699 ft | 134 kts | 91° |
| 2026-04-23 15:02 | 13.20744 | 77.65741 | 3536 ft | 134 kts | 92° |
| 2026-04-23 15:02 | 13.20735 | 77.66688 | 3363 ft | 134 kts | 91° |
| 2026-04-23 15:03 | 13.20724 | 77.67638 | 3184 ft | 133 kts | 92° |
| 2026-04-23 15:03 | 13.20714 | 77.68587 | 3030 ft | 132 kts | 91° |
| 2026-04-23 15:03 | 13.20703 | 77.69379 | 3003 ft | 78 kts | 90° |
| 2026-04-23 15:03 | 13.20708 | 77.69714 | 3003 ft | 20 kts | 90° |
| 2026-04-23 15:04 | 13.20708 | 77.69746 | 3003 ft | 0 kts | 90° |
| 2026-04-23 15:04 | 13.20708 | 77.69748 | 3003 ft | 2 kts | 90° |
| 2026-04-23 15:04 | 13.20707 | 77.69904 | 3003 ft | 24 kts | 91° |
| 2026-04-23 15:04 | 13.20701 | 77.70087 | 3003 ft | 28 kts | 91° |
| 2026-04-23 15:05 | 13.20702 | 77.70290 | 3003 ft | 28 kts | 90° |
| 2026-04-23 15:05 | 13.20664 | 77.70492 | 3003 ft | 25 kts | 109° |
| 2026-04-23 15:05 | 13.20586 | 77.70636 | 3003 ft | 16 kts | 122° |
| 2026-04-23 15:05 | 13.20546 | 77.70703 | 3003 ft | 0 kts | 120° |
| 2026-04-23 15:06 | 13.20545 | 77.70705 | 3003 ft | 1 kts | 120° |
| 2026-04-23 15:06 | 13.20536 | 77.70721 | 3003 ft | 3 kts | 117° |
| 2026-04-23 15:06 | 13.20524 | 77.70766 | 3003 ft | 7 kts | 96° |
| 2026-04-23 15:06 | 13.20523 | 77.70827 | 3003 ft | 9 kts | 90° |
| 2026-04-23 15:07 | 13.20523 | 77.70895 | 3003 ft | 10 kts | 90° |
| 2026-04-23 15:07 | 13.20523 | 77.70973 | 3003 ft | 12 kts | 90° |
| 2026-04-23 15:07 | 13.20524 | 77.71024 | 3003 ft | 0 kts | 88° |
| 2026-04-23 15:08 | 13.20524 | 77.71137 | 3003 ft | 21 kts | 92° |
| 2026-04-23 15:08 | 13.20520 | 77.71287 | 3003 ft | 20 kts | 90° |
| 2026-04-23 15:09 | 13.20519 | 77.71577 | 3003 ft | 19 kts | 91° |
| 2026-04-23 15:09 | 13.20516 | 77.71716 | 3003 ft | 14 kts | 89° |
| 2026-04-23 15:09 | 13.20492 | 77.71774 | 3003 ft | 9 kts | 167° |
| 2026-04-23 15:09 | 13.20424 | 77.71787 | 3003 ft | 10 kts | 173° |
| 2026-04-23 15:10 | 13.20374 | 77.71793 | 3003 ft | 11 kts | 173° |